Time;durP1;ratioP1;P1;durP2;ratioP2;P2;SDS_P1;SDS_P2;PMS_P1;PMS_P2;Temp;Humidity;BMP_temperature;BMP_pressure;BME280_temperature;BME280_humidity;BME280_pressure;Samples;Min_cycle;Max_cycle;Signal;HPM_P1;HPM_P2
2024/01/11 00:01:50;;;;;;;10.13;9.13;;;;;;;20.78;25.51;95951.72;6040552;28;109095;-57
2024/01/11 00:04:53;;;;;;;10.03;9.03;;;;;;;20.78;25.77;95946.41;6048347;28;109016;-57
2024/01/11 00:07:56;;;;;;;9.70;8.50;;;;;;;20.78;25.80;95946.41;6047986;28;109088;-58
2024/01/11 00:10:59;;;;;;;9.27;8.33;;;;;;;20.80;25.35;95944.25;6058089;28;109274;-57
2024/01/11 00:14:04;;;;;;;9.60;8.70;;;;;;;20.80;25.40;95940.78;6045922;28;109293;-58
2024/01/11 00:17:07;;;;;;;9.50;8.10;;;;;;;20.80;25.66;95938.94;6060327;28;108772;-58
2024/01/11 00:20:11;;;;;;;9.43;8.50;;;;;;;20.80;25.79;95936.28;6055358;28;110222;-57
2024/01/11 00:23:14;;;;;;;8.87;8.07;;;;;;;20.80;25.62;95935.47;6047076;28;109329;-58
2024/01/11 00:26:17;;;;;;;8.90;8.10;;;;;;;20.78;25.55;95922.47;6055664;28;110184;-57
2024/01/11 00:29:22;;;;;;;8.90;8.10;;;;;;;20.77;25.83;95920.88;6055309;28;110523;-58
2024/01/11 00:32:25;;;;;;;9.00;8.10;;;;;;;20.75;25.58;95931.00;6062926;28;109144;-57
2024/01/11 00:35:28;;;;;;;9.13;8.17;;;;;;;20.74;25.47;95925.94;6053478;28;109931;-57
2024/01/11 00:38:31;;;;;;;8.20;7.40;;;;;;;20.73;25.76;95925.16;6053412;28;109385;-57
2024/01/11 00:41:34;;;;;;;9.57;8.67;;;;;;;20.73;25.69;95921.69;6046285;28;110102;-58
2024/01/11 00:44:39;;;;;;;7.70;6.90;;;;;;;20.71;25.48;95918.53;6051916;28;110197;-57
2024/01/11 00:47:42;;;;;;;8.37;7.57;;;;;;;20.70;25.39;95920.38;6044179;28;109117;-57
2024/01/11 00:50:45;;;;;;;9.53;8.53;;;;;;;20.71;25.64;95923.84;6058815;28;109259;-57
2024/01/11 00:53:48;;;;;;;10.00;9.00;;;;;;;20.66;25.72;95908.69;6051407;28;109059;-56
2024/01/11 00:56:51;;;;;;;9.87;8.87;;;;;;;20.70;25.45;95925.72;6048526;28;109139;-56
2024/01/11 00:59:56;;;;;;;9.37;8.50;;;;;;;20.70;25.47;95908.97;6048019;28;109349;-57
2024/01/11 01:02:59;;;;;;;10.47;9.47;;;;;;;20.70;25.54;95907.09;6057474;28;108914;-57
2024/01/11 01:06:02;;;;;;;10.90;9.90;;;;;;;20.69;25.57;95910.81;6051951;28;109900;-57
2024/01/11 01:09:05;;;;;;;11.67;10.57;;;;;;;20.69;25.40;95907.38;6045114;28;110527;-56
2024/01/11 01:12:10;;;;;;;11.60;10.50;;;;;;;20.68;25.76;95908.44;6055896;28;109055;-57
2024/01/11 01:15:15;;;;;;;11.43;10.33;;;;;;;20.65;25.61;95906.31;6051043;28;110211;-57
2024/01/11 01:18:18;;;;;;;11.57;10.47;;;;;;;20.65;25.34;95901.00;6055950;28;109093;-56
2024/01/11 01:21:21;;;;;;;12.23;11.03;;;;;;;20.64;25.80;95900.19;6047193;28;109922;-57
2024/01/11 01:24:24;;;;;;;12.60;11.40;;;;;;;20.63;25.32;95902.06;6060272;28;110840;-57
2024/01/11 01:27:27;;;;;;;13.30;12.00;;;;;;;20.64;25.62;95905.50;6063099;28;110066;-56
2024/01/11 01:30:31;;;;;;;13.70;12.37;;;;;;;20.64;25.59;95905.50;6064633;28;110174;-56
2024/01/11 01:33:34;;;;;;;14.10;12.60;;;;;;;20.62;25.57;95905.00;6042681;28;109945;-56
2024/01/11 01:36:38;;;;;;;14.60;12.90;;;;;;;20.62;25.48;95903.13;6050884;28;110177;-57
2024/01/11 01:39:41;;;;;;;14.27;12.87;;;;;;;20.63;25.58;95891.41;6055950;28;109344;-57
2024/01/11 01:42:44;;;;;;;14.37;12.97;;;;;;;20.62;25.80;95887.19;6044276;28;109785;-57
2024/01/11 01:45:49;;;;;;;15.07;13.57;;;;;;;20.64;25.47;95884.25;6039269;28;109328;-56
2024/01/11 01:48:54;;;;;;;14.80;13.20;;;;;;;20.65;25.26;95877.06;6061523;28;110129;-57
2024/01/11 01:51:57;;;;;;;15.00;13.50;;;;;;;20.65;25.22;95875.19;6051891;28;110116;-57
2024/01/11 01:55:02;;;;;;;15.10;13.50;;;;;;;20.64;25.34;95870.94;6047944;28;110085;-57
2024/01/11 01:58:05;;;;;;;14.30;12.87;;;;;;;20.63;25.30;95870.16;6053811;28;110281;-56
2024/01/11 02:01:10;;;;;;;13.47;12.17;;;;;;;20.60;25.21;95859.28;6049292;28;110271;-57
2024/01/11 02:04:15;;;;;;;13.13;11.83;;;;;;;20.60;25.38;95862.72;6059788;28;109070;-56
2024/01/11 02:07:19;;;;;;;12.57;11.37;;;;;;;20.61;25.53;95858.19;6051351;28;109237;-57
2024/01/11 02:10:24;;;;;;;13.10;11.47;;;;;;;20.52;25.47;95849.22;6060120;28;109251;-57
2024/01/11 02:13:27;;;;;;;13.60;12.30;;;;;;;20.59;25.32;95855.81;6054675;28;110447;-57
2024/01/11 02:16:32;;;;;;;12.40;11.27;;;;;;;20.59;25.29;95852.38;6043504;28;110650;-56
2024/01/11 02:19:36;;;;;;;12.07;10.90;;;;;;;20.59;25.17;95844.38;6053722;28;109254;-57
2024/01/11 02:22:42;;;;;;;12.80;11.10;;;;;;;20.59;25.41;95858.47;6059955;28;110012;-57
2024/01/11 02:25:46;;;;;;;13.00;11.70;;;;;;;20.59;25.33;95849.72;6051967;28;110017;-56
2024/01/11 02:28:49;;;;;;;11.70;10.60;;;;;;;20.60;25.26;95848.63;6041629;28;109268;-56
2024/01/11 02:31:52;;;;;;;11.10;10.00;;;;;;;20.59;25.26;95850.50;6059748;28;110218;-57
2024/01/11 02:34:57;;;;;;;11.07;9.90;;;;;;;20.60;25.16;95846.78;6061466;28;109117;-57
2024/01/11 02:38:01;;;;;;;11.60;10.50;;;;;;;20.60;24.99;95856.63;6057044;28;108942;-57
2024/01/11 02:41:06;;;;;;;10.00;8.60;;;;;;;20.61;25.09;95852.88;6045059;28;109064;-57
2024/01/11 02:44:09;;;;;;;10.50;9.40;;;;;;;20.59;25.14;95850.50;6048153;28;109269;-56
2024/01/11 02:47:12;;;;;;;9.80;8.80;;;;;;;20.59;24.98;95847.06;6060066;28;109864;-56
2024/01/11 02:50:15;;;;;;;9.73;8.73;;;;;;;20.58;25.21;95843.59;6059720;28;109206;-57
2024/01/11 02:53:18;;;;;;;8.70;7.90;;;;;;;20.58;24.77;95834.81;6045633;28;110060;-57
2024/01/11 02:56:23;;;;;;;9.03;8.13;;;;;;;20.56;24.98;95842.28;6060421;28;110045;-56
2024/01/11 02:59:26;;;;;;;8.87;8.07;;;;;;;20.54;24.87;95831.94;6038346;28;109596;-57
2024/01/11 03:02:29;;;;;;;8.87;8.03;;;;;;;20.52;25.11;95847.38;6052186;28;110158;-57
2024/01/11 03:05:32;;;;;;;10.10;9.10;;;;;;;20.55;25.19;95838.84;6057223;28;110284;-57
2024/01/11 03:08:36;;;;;;;9.70;8.80;;;;;;;20.53;25.18;95845.50;6053865;28;109348;-57
2024/01/11 03:11:41;;;;;;;10.00;9.00;;;;;;;20.52;25.26;95835.94;6054407;28;109531;-57
2024/01/11 03:14:44;;;;;;;9.47;8.60;;;;;;;20.52;25.27;95831.41;6041138;28;109039;-57
2024/01/11 03:17:47;;;;;;;10.80;9.70;;;;;;;20.50;25.19;95836.22;6058678;28;109016;-57
2024/01/11 03:20:51;;;;;;;10.80;9.60;;;;;;;20.52;24.98;95833.28;6057981;28;109152;-57
2024/01/11 03:23:54;;;;;;;11.07;10.00;;;;;;;20.51;25.12;95834.34;6056093;28;109214;-57
2024/01/11 03:26:58;;;;;;;11.63;10.63;;;;;;;20.51;24.96;95837.00;6038006;28;110137;-57
2024/01/11 03:30:01;;;;;;;10.77;9.77;;;;;;;20.51;24.98;95835.16;6062382;28;110272;-57
2024/01/11 03:33:05;;;;;;;12.90;11.70;;;;;;;20.51;24.92;95829.03;6060938;28;108823;-56
2024/01/11 03:36:09;;;;;;;12.47;11.30;;;;;;;20.52;24.73;95822.66;6043408;28;110060;-57
2024/01/11 03:39:12;;;;;;;12.60;11.40;;;;;;;20.51;24.91;95826.38;6047207;28;109213;-57
2024/01/11 03:42:17;;;;;;;13.30;12.00;;;;;;;20.49;24.95;95823.97;6059013;28;110825;-57
2024/01/11 03:45:20;;;;;;;14.93;13.37;;;;;;;20.48;24.89;95826.91;6058707;28;109151;-55
2024/01/11 03:48:23;;;;;;;15.27;13.77;;;;;;;20.48;25.21;95827.69;6049417;28;109126;-55
2024/01/11 03:51:26;;;;;;;15.50;14.00;;;;;;;20.47;24.91;95823.44;6059037;28;109841;-55
2024/01/11 03:54:29;;;;;;;15.10;13.17;;;;;;;20.43;25.00;95817.09;6053319;28;111192;-57
2024/01/11 03:57:34;;;;;;;15.90;14.37;;;;;;;20.47;24.80;95820.00;6057343;28;110938;-57
2024/01/11 04:00:37;;;;;;;15.70;14.10;;;;;;;20.60;24.17;95817.53;6047496;28;109229;-52
2024/01/11 04:03:42;;;;;;;16.00;14.37;;;;;;;21.04;23.61;95818.53;6051266;28;108961;-53
2024/01/11 04:06:46;;;;;;;15.03;13.67;;;;;;;21.27;23.38;95822.34;6050292;28;110827;-53
2024/01/11 04:09:49;;;;;;;15.73;14.20;;;;;;;21.40;23.03;95819.81;6052758;28;110359;-52
2024/01/11 04:12:53;;;;;;;14.53;13.03;;;;;;;21.46;22.82;95818.66;6042421;28;110134;-53
2024/01/11 04:15:56;;;;;;;15.63;14.20;;;;;;;21.50;23.01;95817.03;6057357;28;110166;-53
2024/01/11 04:19:00;;;;;;;18.50;16.90;;;;;;;21.34;23.24;95812.97;6058884;28;109266;-55
2024/01/11 04:22:03;;;;;;;26.37;23.87;;;;;;;20.95;24.03;95806.88;6071309;28;110362;-56
2024/01/11 04:25:08;;;;;;;32.03;29.03;;;;;;;20.73;24.38;95802.00;6042263;28;109149;-53
2024/01/11 04:28:13;;;;;;;23.20;20.97;;;;;;;21.08;23.41;95801.75;6052103;28;110381;-53
2024/01/11 04:31:17;;;;;;;24.27;21.90;;;;;;;21.30;23.15;95798.59;6044242;28;109184;-52
2024/01/11 04:34:20;;;;;;;22.40;20.33;;;;;;;21.42;23.17;95796.34;6033452;28;109252;-53
2024/01/11 04:37:23;;;;;;;22.53;20.43;;;;;;;21.45;22.75;95795.00;6055544;28;109288;-53
2024/01/11 04:40:26;;;;;;;23.17;21.07;;;;;;;21.44;22.81;95794.19;6062125;28;110231;-54
2024/01/11 04:43:30;;;;;;;20.67;18.67;;;;;;;21.43;22.66;95800.59;6052147;28;109107;-53
2024/01/11 04:46:33;;;;;;;21.07;19.17;;;;;;;21.39;22.49;95799.59;6050136;28;110036;-53
2024/01/11 04:49:36;;;;;;;24.57;22.17;;;;;;;21.10;23.51;95799.59;6042402;28;109237;-55
2024/01/11 04:52:39;;;;;;;22.07;19.53;;;;;;;20.90;23.38;95803.19;6047486;28;110225;-53
2024/01/11 04:55:43;;;;;;;23.77;20.70;;;;;;;21.19;23.26;95810.44;6039417;28;109249;-52
2024/01/11 04:58:48;;;;;;;20.53;18.63;;;;;;;21.34;22.61;95802.31;6038607;28;109372;-53
2024/01/11 05:01:51;;;;;;;21.07;19.10;;;;;;;21.38;22.68;95803.31;6052967;28;111826;-53
2024/01/11 05:04:54;;;;;;;20.07;18.17;;;;;;;21.41;22.72;95807.28;6039779;28;110118;-52
2024/01/11 05:07:58;;;;;;;20.67;18.77;;;;;;;21.25;23.94;95811.97;6027358;28;109149;-56
2024/01/11 05:11:01;;;;;;;20.60;18.70;;;;;;;21.08;24.07;95804.41;6057149;28;109580;-57
2024/01/11 05:14:05;;;;;;;20.20;18.10;;;;;;;21.09;24.59;95806.00;6053229;28;109160;-59
2024/01/11 05:17:08;;;;;;;20.43;18.33;;;;;;;20.88;24.76;95794.72;6063622;28;109083;-56
2024/01/11 05:20:12;;;;;;;18.10;16.20;;;;;;;20.78;24.85;95794.78;6052784;28;109083;-56
2024/01/11 05:23:15;;;;;;;17.73;16.03;;;;;;;20.76;24.83;95786.28;6062971;28;109352;-56
2024/01/11 05:26:19;;;;;;;17.50;15.80;;;;;;;20.74;24.50;95793.75;6063025;28;109128;-56
2024/01/11 05:29:23;;;;;;;17.20;15.50;;;;;;;20.69;24.80;95785.81;6063195;28;110064;-56
2024/01/11 05:32:26;;;;;;;17.70;15.63;;;;;;;20.70;24.50;95783.97;6052606;28;110112;-56
2024/01/11 05:35:30;;;;;;;16.30;14.70;;;;;;;20.68;24.70;95778.91;6040092;28;110278;-56
2024/01/11 05:38:33;;;;;;;15.60;14.00;;;;;;;20.65;24.63;95779.44;6039432;28;109435;-56
2024/01/11 05:41:36;;;;;;;15.30;13.80;;;;;;;20.67;24.55;95784.50;6033800;28;109024;-55
2024/01/11 05:44:41;;;;;;;15.40;13.90;;;;;;;20.65;24.78;95779.44;6035371;28;109300;-56
2024/01/11 05:47:44;;;;;;;14.40;12.90;;;;;;;20.64;24.47;95777.88;6040083;28;109237;-56
2024/01/11 05:50:48;;;;;;;13.80;12.40;;;;;;;20.61;24.87;95773.91;6038614;28;109068;-56
2024/01/11 05:53:51;;;;;;;14.37;12.97;;;;;;;20.62;24.83;95774.69;6038157;28;110294;-56
2024/01/11 05:56:57;;;;;;;14.33;13.03;;;;;;;20.62;25.09;95774.69;6062707;28;109401;-56
2024/01/11 06:00:01;;;;;;;12.37;11.13;;;;;;;20.59;25.07;95769.94;6062449;28;109186;-56
2024/01/11 06:03:05;;;;;;;13.60;12.17;;;;;;;20.57;25.01;95764.91;6060204;28;110168;-56
2024/01/11 06:06:08;;;;;;;12.97;11.57;;;;;;;20.56;24.54;95765.19;6028834;28;110272;-56
2024/01/11 06:09:12;;;;;;;12.80;11.50;;;;;;;20.55;24.86;95764.38;6050718;28;110385;-56
2024/01/11 06:12:15;;;;;;;12.87;11.43;;;;;;;20.54;24.46;95768.13;6063228;28;110485;-56
2024/01/11 06:15:20;;;;;;;12.60;11.43;;;;;;;20.52;24.54;95764.16;6057302;28;109685;-55
2024/01/11 06:18:23;;;;;;;12.73;11.53;;;;;;;20.53;24.82;95768.41;6057330;28;111165;-55
2024/01/11 06:21:26;;;;;;;12.70;11.40;;;;;;;20.52;24.60;95770.25;6062135;28;110083;-55
2024/01/11 06:24:29;;;;;;;13.37;12.07;;;;;;;20.53;24.76;95769.19;6062477;28;110176;-56
2024/01/11 06:27:32;;;;;;;13.87;12.37;;;;;;;20.54;24.33;95762.00;6052507;28;110353;-57
2024/01/11 06:30:37;;;;;;;13.90;12.57;;;;;;;20.55;24.40;95760.94;6041724;28;109145;-56
2024/01/11 06:33:40;;;;;;;13.17;11.83;;;;;;;20.55;24.21;95759.06;6039878;28;109107;-56
2024/01/11 06:36:44;;;;;;;15.33;13.93;;;;;;;20.55;24.28;95755.63;6039254;28;110037;-56
2024/01/11 06:39:47;;;;;;;13.80;12.40;;;;;;;20.57;24.34;95754.25;6029192;28;110188;-56
2024/01/11 06:42:50;;;;;;;14.80;13.40;;;;;;;20.54;24.69;95754.03;6039414;28;109492;-57
2024/01/11 06:45:54;;;;;;;15.07;13.57;;;;;;;20.54;24.48;95752.16;6039108;28;109625;-56
2024/01/11 06:48:57;;;;;;;15.00;13.60;;;;;;;20.54;24.68;95746.84;6038379;28;109000;-56
2024/01/11 06:52:00;;;;;;;15.00;13.60;;;;;;;20.53;24.68;95739.16;6028745;28;110520;-56
2024/01/11 06:55:04;;;;;;;15.37;13.87;;;;;;;20.54;24.11;95743.41;6039162;28;109240;-56
2024/01/11 06:58:07;;;;;;;15.60;13.80;;;;;;;20.52;24.57;95735.69;6039049;28;109983;-57
2024/01/11 07:01:12;;;;;;;15.30;14.00;;;;;;;20.54;24.57;95740.75;6057340;28;109325;-56
2024/01/11 07:04:15;;;;;;;15.90;14.40;;;;;;;20.65;24.48;95733.44;6058228;28;109128;-56
2024/01/11 07:07:18;;;;;;;15.73;14.23;;;;;;;20.83;24.19;95746.84;6062135;28;109114;-56
2024/01/11 07:10:21;;;;;;;15.77;14.30;;;;;;;21.01;24.10;95742.72;6061738;28;109173;-56
2024/01/11 07:13:24;;;;;;;15.97;14.37;;;;;;;21.08;23.73;95743.19;6051312;28;109150;-60
2024/01/11 07:16:29;;;;;;;15.53;14.03;;;;;;;21.09;24.08;95744.00;6061533;28;109107;-60
2024/01/11 07:19:33;;;;;;;16.40;14.70;;;;;;;21.15;23.56;95745.50;6061651;28;111654;-60
2024/01/11 07:22:36;;;;;;;16.67;15.07;;;;;;;21.15;23.95;95740.97;6061053;28;109071;-57
2024/01/11 07:25:43;;;;;;;15.53;14.13;;;;;;;21.19;23.54;95736.72;6051570;28;111465;-56
2024/01/11 07:28:46;;;;;;;16.70;15.20;;;;;;;21.23;23.77;95734.25;6058469;28;110413;-56
2024/01/11 07:31:51;;;;;;;16.30;14.70;;;;;;;21.27;23.78;95737.94;6037881;28;109131;-56
2024/01/11 07:34:54;;;;;;;16.37;14.70;;;;;;;21.25;23.82;95740.09;6034162;28;109238;-56
2024/01/11 07:37:57;;;;;;;17.23;15.60;;;;;;;21.18;23.71;95740.44;6031705;28;109459;-56
2024/01/11 07:41:01;;;;;;;17.10;15.50;;;;;;;21.14;23.77;95738.59;6038144;28;109269;-56
2024/01/11 07:44:04;;;;;;;17.57;15.90;;;;;;;21.11;23.68;95739.97;6038035;28;109094;-56
2024/01/11 07:47:09;;;;;;;18.27;16.57;;;;;;;21.11;23.87;95742.63;6027358;28;109208;-57
2024/01/11 07:50:12;;;;;;;18.67;16.87;;;;;;;21.07;23.58;95733.63;6051702;28;109031;-56
2024/01/11 07:53:16;;;;;;;18.33;16.60;;;;;;;21.11;23.83;95741.84;6061356;28;109274;-56
2024/01/11 07:56:20;;;;;;;18.57;16.70;;;;;;;21.11;23.98;95731.19;6060817;28;109062;-56
2024/01/11 07:59:23;;;;;;;18.20;16.57;;;;;;;21.09;23.96;95736.78;6050659;28;110043;-56
2024/01/11 08:02:27;;;;;;;18.33;16.53;;;;;;;21.12;23.93;95738.88;6061210;28;109439;-55
2024/01/11 08:05:30;;;;;;;18.73;17.10;;;;;;;21.11;23.76;95728.53;6061018;28;109111;-55
2024/01/11 08:08:34;;;;;;;19.60;17.60;;;;;;;21.10;24.13;95726.94;6061482;28;109135;-54
2024/01/11 08:11:37;;;;;;;20.03;18.23;;;;;;;21.12;23.87;95730.13;6051076;28;110044;-54
2024/01/11 08:14:46;;;;;;;19.87;17.80;;;;;;;21.12;24.15;95712.28;6060643;28;109110;-54
2024/01/11 08:17:51;;;;;;;20.20;18.20;;;;;;;21.10;24.23;95716.31;6061412;28;109538;-54
2024/01/11 08:20:54;;;;;;;20.67;18.70;;;;;;;21.11;23.78;95709.91;6051117;28;110314;-55
2024/01/11 08:23:57;;;;;;;21.00;19.00;;;;;;;21.09;23.99;95709.41;6059836;28;110116;-54
2024/01/11 08:27:05;;;;;;;20.10;18.00;;;;;;;21.08;23.83;95705.94;6061225;28;109477;-55
2024/01/11 08:30:09;;;;;;;19.60;17.67;;;;;;;21.09;23.92;95710.19;6060876;28;109362;-55
2024/01/11 08:33:13;;;;;;;19.80;17.87;;;;;;;21.09;23.91;95709.41;6050185;28;109117;-57
2024/01/11 08:36:17;;;;;;;19.80;17.97;;;;;;;21.10;24.00;95705.66;6060652;28;109134;-56
2024/01/11 08:39:21;;;;;;;20.53;18.73;;;;;;;21.10;24.05;95708.31;6060648;28;109477;-56
2024/01/11 08:42:24;;;;;;;21.50;19.50;;;;;;;21.09;24.08;95704.88;6060894;28;110425;-56
2024/01/11 08:45:29;;;;;;;21.87;19.87;;;;;;;21.09;24.10;95704.88;6050129;28;109715;-56
2024/01/11 08:48:34;;;;;;;21.30;19.40;;;;;;;21.06;23.95;95705.44;6061902;28;110248;-56
2024/01/11 08:51:37;;;;;;;22.27;19.97;;;;;;;20.99;24.22;95704.94;6063899;28;109116;-56
2024/01/11 08:54:40;;;;;;;22.20;19.93;;;;;;;20.94;24.09;95699.66;6051890;28;110187;-56
2024/01/11 08:57:43;;;;;;;20.07;18.30;;;;;;;20.91;24.35;95697.56;6035411;28;110124;-55
2024/01/11 09:00:46;;;;;;;21.47;19.47;;;;;;;20.89;24.28;95702.38;6040432;28;109229;-55
2024/01/11 09:03:51;;;;;;;22.20;19.97;;;;;;;20.85;24.11;95688.88;6040509;28;110112;-55
2024/01/11 09:06:54;;;;;;;20.50;18.50;;;;;;;20.83;24.73;95680.34;6030070;28;110091;-55
2024/01/11 09:09:59;;;;;;;21.10;19.10;;;;;;;20.83;24.43;95679.56;6040110;28;109168;-55
2024/01/11 09:13:02;;;;;;;19.33;17.57;;;;;;;20.80;24.33;95664.97;6040081;28;109160;-55
2024/01/11 09:16:06;;;;;;;20.63;18.90;;;;;;;20.78;24.42;95667.09;6040160;28;109445;-55
2024/01/11 09:19:11;;;;;;;21.63;19.50;;;;;;;20.79;24.21;95662.59;6029437;28;109933;-55
2024/01/11 09:22:14;;;;;;;20.47;18.57;;;;;;;20.79;24.28;95659.91;6040708;28;109142;-55
2024/01/11 09:25:17;;;;;;;20.90;18.90;;;;;;;20.80;24.62;95659.63;6048624;28;109201;-55
2024/01/11 09:28:21;;;;;;;19.70;18.00;;;;;;;20.82;24.31;95657.47;6060137;28;109154;-56
2024/01/11 09:31:24;;;;;;;21.40;19.40;;;;;;;20.84;24.26;95654.56;6057762;28;109093;-55
2024/01/11 09:34:28;;;;;;;20.23;18.33;;;;;;;20.85;24.51;95646.31;6063464;28;109161;-55
2024/01/11 09:37:32;;;;;;;19.43;17.53;;;;;;;20.86;24.25;95637.25;6063705;28;110214;-55
2024/01/11 09:40:35;;;;;;;20.07;17.97;;;;;;;20.87;24.69;95633.50;6053858;28;109218;-55
2024/01/11 09:43:38;;;;;;;19.57;17.87;;;;;;;20.93;24.42;95627.03;6049161;28;109254;-59
2024/01/11 09:46:41;;;;;;;21.27;19.37;;;;;;;20.93;24.35;95621.72;6039934;28;109192;-59
2024/01/11 09:49:46;;;;;;;19.97;18.13;;;;;;;20.90;24.52;95606.34;6039973;28;110227;-59
2024/01/11 09:52:50;;;;;;;18.77;17.07;;;;;;;20.97;24.56;95597.22;6030406;28;111129;-61
2024/01/11 09:55:55;;;;;;;19.10;17.40;;;;;;;20.99;24.71;95600.38;6039012;28;109149;-59
2024/01/11 09:58:58;;;;;;;18.90;17.20;;;;;;;20.98;24.58;95590.81;6055560;28;109813;-60
2024/01/11 10:02:03;;;;;;;19.10;17.33;;;;;;;20.99;24.40;95587.06;6062385;28;109530;-60
2024/01/11 10:05:08;;;;;;;19.27;17.50;;;;;;;21.02;24.26;95582.00;6053131;28;110094;-58
2024/01/11 10:08:13;;;;;;;20.43;18.33;;;;;;;21.03;24.57;95585.44;6063074;28;110432;-59
2024/01/11 10:11:16;;;;;;;19.30;17.50;;;;;;;21.03;24.50;95574.81;6063082;28;109669;-59
2024/01/11 10:14:19;;;;;;;19.70;17.90;;;;;;;21.03;24.40;95566.81;6039329;28;109153;-60
2024/01/11 10:17:24;;;;;;;20.47;18.47;;;;;;;21.02;24.49;95562.59;6037197;28;109216;-58
2024/01/11 10:20:31;;;;;;;19.07;17.37;;;;;;;21.00;24.46;95552.19;6062719;28;109240;-60
2024/01/11 10:23:35;;;;;;;19.40;17.70;;;;;;;21.00;24.57;95549.53;6051307;28;109097;-58
2024/01/11 10:26:39;;;;;;;18.60;16.80;;;;;;;21.00;24.24;95548.75;6028088;28;109150;-59
2024/01/11 10:29:43;;;;;;;18.53;16.77;;;;;;;20.98;24.60;95537.59;6059705;28;109061;-60
2024/01/11 10:32:47;;;;;;;18.53;16.83;;;;;;;21.00;24.25;95538.09;6058053;28;109096;-60
2024/01/11 10:35:52;;;;;;;19.07;17.37;;;;;;;20.99;24.38;95525.88;6039375;28;110385;-59
2024/01/11 10:38:56;;;;;;;20.40;18.37;;;;;;;21.02;24.18;95526.13;6029625;28;109184;-59
2024/01/11 10:42:05;;;;;;;19.80;18.00;;;;;;;21.03;24.18;95517.06;6039214;28;110445;-59
2024/01/11 10:45:14;;;;;;;19.50;17.77;;;;;;;21.07;24.33;95514.63;6039605;28;109086;-59
2024/01/11 10:48:18;;;;;;;18.40;16.53;;;;;;;21.06;24.11;95511.19;6042169;28;109729;-58
2024/01/11 10:51:25;;;;;;;19.90;17.87;;;;;;;21.14;24.47;95507.06;6057866;28;110153;-60
2024/01/11 10:54:30;;;;;;;17.63;15.93;;;;;;;21.15;24.32;95506.78;6061990;28;109229;-53
2024/01/11 10:57:34;;;;;;;18.43;16.63;;;;;;;21.11;24.61;95502.34;6061525;28;109109;-53
2024/01/11 11:00:38;;;;;;;19.40;17.63;;;;;;;21.08;24.46;95492.28;6051434;28;109254;-54
2024/01/11 11:03:44;;;;;;;18.63;17.03;;;;;;;21.06;24.41;95483.78;6061592;28;109083;-56
2024/01/11 11:06:51;;;;;;;17.13;15.60;;;;;;;21.03;24.51;95479.81;6062613;28;110130;-53
2024/01/11 11:09:57;;;;;;;19.53;17.63;;;;;;;21.07;24.33;95472.06;6061975;28;109227;-53
2024/01/11 11:13:00;;;;;;;17.77;16.00;;;;;;;21.05;24.48;95466.25;6051712;28;110145;-55
2024/01/11 11:16:04;;;;;;;18.87;16.87;;;;;;;21.01;24.55;95454.56;6061459;28;109070;-55
2024/01/11 11:19:08;;;;;;;17.83;16.23;;;;;;;21.01;24.57;95449.25;6062307;28;109134;-56
2024/01/11 11:22:16;;;;;;;17.00;15.50;;;;;;;21.00;24.36;95439.66;6057225;28;109229;-56
2024/01/11 11:25:25;;;;;;;18.80;17.00;;;;;;;20.99;24.55;95435.41;6055841;28;109287;-55
2024/01/11 11:28:30;;;;;;;17.77;16.07;;;;;;;20.96;24.40;95423.50;6054172;28;109223;-54
2024/01/11 11:31:37;;;;;;;19.20;17.30;;;;;;;20.99;24.66;95427.44;6038411;28;110163;-54
2024/01/11 11:34:44;;;;;;;18.90;17.20;;;;;;;21.00;24.46;95415.72;6027899;28;111354;-54
2024/01/11 11:37:50;;;;;;;19.57;17.77;;;;;;;21.00;24.41;95411.19;6038042;28;109235;-54
2024/01/11 11:40:55;;;;;;;18.67;16.97;;;;;;;21.02;24.39;95405.59;6039049;28;109127;-54
2024/01/11 11:44:02;;;;;;;18.43;16.73;;;;;;;21.02;24.12;95397.63;6038472;28;110448;-55
2024/01/11 11:47:22;;;;;;;18.07;16.47;;;;;;;21.01;24.29;95396.03;6027385;28;108895;-53
2024/01/11 11:50:25;;;;;;;17.50;15.90;;;;;;;21.02;24.48;95389.63;6038680;28;110075;-53
2024/01/11 11:53:34;;;;;;;18.80;17.10;;;;;;;21.03;24.32;95388.56;6037730;28;109287;-54
2024/01/11 11:56:38;;;;;;;17.30;15.60;;;;;;;21.03;24.23;95386.69;6034204;28;109047;-54
2024/01/11 11:59:42;;;;;;;17.50;15.80;;;;;;;21.02;24.44;95384.31;6047231;28;110350;-54
2024/01/11 12:02:47;;;;;;;18.43;16.80;;;;;;;21.00;24.59;95375.81;6061362;28;110054;-57
2024/01/11 12:05:50;;;;;;;17.60;16.10;;;;;;;21.00;24.70;95370.47;6037397;28;109908;-56
2024/01/11 12:08:56;;;;;;;17.33;15.83;;;;;;;20.99;24.54;95364.38;6029020;28;109969;-57
2024/01/11 12:12:00;;;;;;;17.70;16.00;;;;;;;20.98;24.56;95362.78;6037601;28;109077;-59
2024/01/11 12:15:18;;;;;;;18.30;16.70;;;;;;;20.97;24.69;95349.78;6037129;28;110031;-59
2024/01/11 12:18:21;;;;;;;17.10;15.50;;;;;;;;;;6037915;28;110138;-59
2024/01/11 12:21:26;;;;;;;17.53;15.87;;;;;;;20.91;24.27;95341.09;6026972;28;109214;-59
2024/01/11 12:24:31;;;;;;;17.53;15.93;;;;;;;20.90;24.60;95335.00;6039495;28;109100;-62
2024/01/11 12:27:34;;;;;;;18.57;16.57;;;;;;;20.89;24.60;95325.44;6041767;28;109724;-60
2024/01/11 12:30:37;;;;;;;17.03;15.53;;;;;;;20.88;24.62;95321.19;6035503;28;109283;-59
2024/01/11 12:33:41;;;;;;;16.70;15.30;;;;;;;20.86;24.54;95326.03;6030626;28;109196;-59
2024/01/11 12:36:45;;;;;;;18.90;17.20;;;;;;;20.85;24.68;95316.47;6040788;28;109151;-61
2024/01/11 12:39:49;;;;;;;17.87;16.13;;;;;;;20.83;24.51;95313.28;6054930;28;110071;-60
2024/01/11 12:42:52;;;;;;;18.10;16.47;;;;;;;20.83;24.56;95307.97;6059790;28;110230;-59
2024/01/11 12:45:56;;;;;;;18.70;16.90;;;;;;;20.87;24.52;95302.88;6059456;28;109585;-59
2024/01/11 12:48:59;;;;;;;18.50;16.63;;;;;;;20.87;24.54;95300.22;6064014;28;109066;-60
2024/01/11 12:52:02;;;;;;;18.23;16.43;;;;;;;20.88;24.49;95294.59;6064533;28;109024;-60
2024/01/11 12:55:09;;;;;;;18.80;17.00;;;;;;;20.89;24.66;95288.19;6053139;28;110160;-60
2024/01/11 12:58:12;;;;;;;18.60;16.80;;;;;;;20.88;24.38;95283.97;6063897;28;109240;-59
2024/01/11 13:01:15;;;;;;;18.80;17.00;;;;;;;20.89;24.36;95285.53;6063270;28;109224;-60
2024/01/11 13:04:19;;;;;;;19.07;17.20;;;;;;;20.93;24.43;95281.22;6064031;28;110033;-59
2024/01/11 13:07:22;;;;;;;18.30;16.60;;;;;;;21.01;24.36;95276.31;6053329;28;109120;-60
2024/01/11 13:10:27;;;;;;;18.10;16.40;;;;;;;20.97;24.39;95270.78;6046330;28;109212;-59
2024/01/11 13:13:31;;;;;;;17.60;16.00;;;;;;;20.91;24.80;95267.41;6040843;28;109108;-57
2024/01/11 13:16:34;;;;;;;17.90;16.10;;;;;;;20.90;24.59;95271.16;6035565;28;110072;-56
2024/01/11 13:19:38;;;;;;;18.70;17.00;;;;;;;20.89;24.98;95264.25;6035624;28;110292;-57
2024/01/11 13:22:41;;;;;;;18.20;16.50;;;;;;;20.92;24.74;95255.69;6040730;28;110246;-57
2024/01/11 13:25:46;;;;;;;17.43;15.87;;;;;;;20.92;25.02;95255.69;6040024;28;109151;-57
2024/01/11 13:28:52;;;;;;;19.20;17.40;;;;;;;20.85;25.32;95255.28;6033429;28;109295;-57
2024/01/11 13:31:55;;;;;;;17.87;16.23;;;;;;;20.86;25.31;95246.22;6063071;28;109046;-57
2024/01/11 13:34:59;;;;;;;18.43;16.67;;;;;;;20.90;25.38;95244.56;6062485;28;109262;-57
2024/01/11 13:38:02;;;;;;;18.00;16.17;;;;;;;20.91;25.30;95230.19;6064025;28;110432;-57
2024/01/11 13:41:07;;;;;;;17.13;15.47;;;;;;;21.00;25.24;95229.47;6046829;28;109003;-57
2024/01/11 13:44:11;;;;;;;18.30;16.47;;;;;;;21.03;25.24;95228.91;6060046;28;109300;-57
2024/01/11 13:47:14;;;;;;;18.40;16.60;;;;;;;21.05;25.39;95224.91;6059890;28;109217;-57
2024/01/11 13:50:18;;;;;;;17.83;16.03;;;;;;;21.05;25.37;95219.59;6060872;28;110962;-57
2024/01/11 13:53:23;;;;;;;18.33;16.33;;;;;;;21.06;25.16;95217.72;6053508;28;108914;-57
2024/01/11 13:56:28;;;;;;;17.97;16.27;;;;;;;21.04;25.25;95215.31;6054954;28;109245;-57
2024/01/11 13:59:32;;;;;;;17.40;15.70;;;;;;;21.04;25.42;95206.56;6062716;28;109226;-57